Fletcher, Illinois
Current Conditions -  °F | °C
As of 6:56 PM on Tuesday 21 Oct 2014 (Local Time) from KBMI Reporting Station
Clear Clear  
Wind Chill: 44°   Ceiling: Unl
Heat Index: 49°   Visibility: 10mi
Dew Point: 41°   Wind: 12mph
Humidity: 74%   Direction: 60°ENE
Pressure: 30.2"   Gusts: NA
Location:  40.4766°N, 88.992°W
Report Text: KBMI 212356Z 06010KT 10SM CLR 09/05 A3020 RMK AO2 51012 T00940050 10155 20094 SLP233
Loading
Personal Weather Stations






























Interactive Weather Map
Tropical Storm Tracking
New forecast layout! Learn more

10-Day Weather Forecast

Advertisements
Track Severe Weather on mobile